Time;durP1;ratioP1;P1;durP2;ratioP2;P2;SDS_P1;SDS_P2;PMS_P1;PMS_P2;Temp;Humidity;BMP_temperature;BMP_pressure;BME280_temperature;BME280_humidity;BME280_pressure;Samples;Min_cycle;Max_cycle;Signal;HPM_P1;HPM_P2
2021/03/15 00:00:44;;;;;;;10.10;4.30;;;;;;;1.78;85.06;95410.06;5077161;28;20075;-47
2021/03/15 00:03:11;;;;;;;6.10;4.32;;;;;;;1.73;85.31;95406.69;5094118;28;20056;-48
2021/03/15 00:05:54;;;;;;;;;;;;;;;1.71;85.55;95414.19;5084665;28;20506;-47
2021/03/15 00:08:21;;;;;;;5.75;4.00;;;;;;;1.71;85.62;95406.19;5073822;28;19971;-52
2021/03/15 00:10:48;;;;;;;5.95;4.00;;;;;;;1.61;85.69;95402.56;5063622;28;20048;-47
2021/03/15 00:13:15;;;;;;;6.13;4.38;;;;;;;1.55;86.25;95403.72;5094133;28;20056;-47
2021/03/15 00:15:43;;;;;;;5.75;3.90;;;;;;;1.56;86.21;95402.66;5091281;28;20512;-48
2021/03/15 00:18:10;;;;;;;5.40;3.97;;;;;;;1.53;86.22;95405.91;5092002;28;20058;-48
2021/03/15 00:20:37;;;;;;;6.40;3.97;;;;;;;1.49;86.51;95406.75;5086527;28;20072;-48
2021/03/15 00:23:04;;;;;;;5.38;4.10;;;;;;;1.77;85.86;95405.81;5073827;28;20055;-48
2021/03/15 00:25:31;;;;;;;5.68;4.05;;;;;;;1.55;86.10;95408.25;5078641;28;20060;-48
2021/03/15 00:27:57;;;;;;;5.30;3.85;;;;;;;1.75;86.00;95415.19;5089879;28;20067;-48
2021/03/15 00:30:24;;;;;;;5.00;3.78;;;;;;;1.63;85.86;95411.09;5088146;28;20111;-49
2021/03/15 00:32:52;;;;;;;6.32;4.05;;;;;;;1.72;85.90;95413.88;5093016;28;20060;-45
2021/03/15 00:35:19;;;;;;;6.45;4.50;;;;;;;1.65;85.87;95410.78;5093470;28;20059;-49
2021/03/15 00:37:46;;;;;;;6.70;4.57;;;;;;;1.72;86.07;95402.44;5094467;28;20052;-48
2021/03/15 00:40:15;;;;;;;5.70;4.25;;;;;;;1.70;86.49;95412.59;5081379;28;20559;-48
2021/03/15 00:42:43;;;;;;;6.43;4.60;;;;;;;1.58;86.22;95408.47;5073860;28;20539;-48
2021/03/15 00:45:11;;;;;;;5.93;4.40;;;;;;;1.58;86.63;95408.47;5072421;28;20044;-47
2021/03/15 00:47:38;;;;;;;7.50;5.10;;;;;;;1.62;86.48;95414.03;5073783;28;20044;-47
2021/03/15 00:50:40;;;;;;;6.68;4.85;;;;;;;1.76;85.97;95401.59;5072230;28;20127;-48
2021/03/15 00:53:12;;;;;;;6.32;4.38;;;;;;;1.35;86.90;95415.44;5048316;28;20052;-49
2021/03/15 00:55:39;;;;;;;6.75;4.70;;;;;;;1.46;87.41;95409.97;5054492;28;20117;-46
2021/03/15 00:58:05;;;;;;;7.68;4.68;;;;;;;1.74;86.14;95416.28;5072057;28;20048;-45
2021/03/15 01:00:35;;;;;;;6.30;4.90;;;;;;;1.53;86.42;95411.22;5071937;28;20052;-47
2021/03/15 01:03:09;;;;;;;7.53;5.20;;;;;;;1.58;86.59;95408.47;5072542;28;20060;-47
2021/03/15 01:05:48;;;;;;;8.40;6.00;;;;;;;1.56;85.96;95399.19;5072443;28;20044;-46
2021/03/15 01:08:39;;;;;;;6.13;4.13;;;;;;;1.39;86.68;95397.78;5091427;28;20048;-48
2021/03/15 01:11:12;;;;;;;7.30;5.25;;;;;;;1.45;86.73;95395.88;5073824;28;20079;-49
2021/03/15 01:13:42;;;;;;;7.07;5.20;;;;;;;1.61;86.06;95397.25;5074054;28;20044;-47
2021/03/15 01:16:11;;;;;;;7.45;5.22;;;;;;;1.78;85.68;95395.94;5069153;28;20076;-47
2021/03/15 01:18:37;;;;;;;8.25;5.07;;;;;;;1.70;85.96;95400.06;5054050;28;20506;-46
2021/03/15 01:21:04;;;;;;;8.80;5.60;;;;;;;1.48;86.33;95395.28;5071392;28;20051;-47
2021/03/15 01:23:30;;;;;;;11.45;5.82;;;;;;;1.58;86.24;95392.47;5071759;28;20048;-46
2021/03/15 01:25:57;;;;;;;8.38;5.72;;;;;;;1.50;86.09;95395.81;5072145;28;20064;-47
2021/03/15 01:28:24;;;;;;;9.57;5.13;;;;;;;1.53;85.93;95399.78;5071536;28;20087;-49
2021/03/15 01:30:50;;;;;;;8.88;5.50;;;;;;;1.49;86.05;95394.19;5071742;28;20540;-47
2021/03/15 01:33:17;;;;;;;8.18;5.60;;;;;;;1.42;86.61;95398.31;5054830;28;20075;-49
2021/03/15 01:35:44;;;;;;;7.05;4.70;;;;;;;1.47;86.50;95401.72;5072525;28;20357;-47
2021/03/15 01:38:11;;;;;;;6.63;5.15;;;;;;;1.40;86.57;95385.28;5072199;28;20102;-47
2021/03/15 01:40:39;;;;;;;9.32;5.63;;;;;;;1.45;86.18;95390.53;5072373;28;20114;-47
2021/03/15 01:43:08;;;;;;;10.20;5.93;;;;;;;1.49;85.62;95378.22;5072957;28;20420;-48
2021/03/15 01:45:35;;;;;;;8.30;5.43;;;;;;;1.52;85.30;95382.97;5054667;28;20140;-48
2021/03/15 01:48:06;;;;;;;8.50;5.38;;;;;;;1.40;85.56;95374.63;5092297;28;20052;-47
2021/03/15 01:50:33;;;;;;;8.13;5.82;;;;;;;1.56;85.31;95373.34;5085851;28;20049;-49
2021/03/15 01:53:00;;;;;;;11.15;5.40;;;;;;;1.46;85.37;95365.44;5072509;28;20080;-49
2021/03/15 01:55:26;;;;;;;8.32;5.38;;;;;;;1.52;85.31;95366.97;5072899;28;20056;-48
2021/03/15 01:57:54;;;;;;;8.43;5.53;;;;;;;1.48;85.83;95357.97;5072515;28;20049;-47
2021/03/15 02:00:20;;;;;;;9.80;5.53;;;;;;;1.41;85.62;95360.22;5071955;28;20048;-48
2021/03/15 02:03:01;;;;;;;10.25;6.25;;;;;;;1.59;85.24;95354.09;5072562;28;20052;-49
2021/03/15 02:05:34;;;;;;;8.35;4.85;;;;;;;1.52;85.27;95358.97;5054875;28;20128;-48
2021/03/15 02:08:01;;;;;;;7.70;5.65;;;;;;;1.51;85.43;95352.06;5071752;28;20510;-48
2021/03/15 02:10:28;;;;;;;10.10;5.30;;;;;;;1.60;84.93;95346.88;5070827;28;20080;-49
2021/03/15 02:13:13;;;;;;;9.55;5.60;;;;;;;1.79;84.58;95350.31;5071515;28;20044;-45
2021/03/15 02:16:38;;;;;;;6.80;4.93;;;;;;;1.50;85.35;95347.03;5071630;28;20149;-49
2021/03/15 02:19:11;;;;;;;7.07;4.78;;;;;;;1.44;85.71;95345.53;5029662;28;20510;-47
2021/03/15 02:22:14;;;;;;;8.73;5.15;;;;;;;1.59;85.19;95346.09;5013797;28;20037;-49
2021/03/15 02:25:13;;;;;;;9.85;5.80;;;;;;;1.66;84.88;95347.56;5073090;28;20048;-47
2021/03/15 02:28:07;;;;;;;8.10;5.05;;;;;;;1.33;86.21;95339.50;5092541;28;20409;-49
2021/03/15 02:30:58;;;;;;;7.50;5.38;;;;;;;1.25;86.55;95342.84;5060823;28;20052;-49
2021/03/15 02:33:46;;;;;;;8.82;5.35;;;;;;;1.38;85.98;95342.91;5072263;28;20060;-47
2021/03/15 02:36:15;;;;;;;7.97;5.05;;;;;;;1.43;85.40;95347.41;5071718;28;20052;-50
2021/03/15 02:38:45;;;;;;;7.57;5.00;;;;;;;1.44;85.52;95342.84;5071885;28;20056;-49
2021/03/15 02:41:14;;;;;;;10.90;6.43;;;;;;;1.40;85.85;95335.44;5053810;28;20109;-47
2021/03/15 02:43:57;;;;;;;8.82;5.53;;;;;;;1.37;85.60;95338.66;5070487;28;20049;-48
2021/03/15 02:46:28;;;;;;;8.43;5.20;;;;;;;1.35;85.57;95342.69;5072127;28;20412;-47
2021/03/15 02:48:59;;;;;;;9.95;5.68;;;;;;;1.39;85.63;95341.03;5084170;28;20509;-49
2021/03/15 02:51:28;;;;;;;11.10;5.90;;;;;;;1.38;85.36;95332.25;5078260;28;20459;-45
2021/03/15 02:53:57;;;;;;;8.40;5.57;;;;;;;1.50;84.93;95337.16;5081566;28;20063;-48
2021/03/15 02:56:32;;;;;;;7.28;5.50;;;;;;;1.37;85.12;95329.88;5071572;28;20421;-47
2021/03/15 02:59:03;;;;;;;6.30;4.03;;;;;;;1.32;85.13;95343.28;5070384;28;20128;-46
2021/03/15 03:01:32;;;;;;;7.32;4.93;;;;;;;1.25;85.32;95342.84;5070199;28;20131;-46
2021/03/15 03:04:02;;;;;;;6.47;4.68;;;;;;;1.24;85.46;95335.94;5070421;28;20040;-45
2021/03/15 03:06:31;;;;;;;10.07;5.38;;;;;;;1.30;85.39;95343.56;5070573;28;21783;-47
2021/03/15 03:09:10;;;;;;;8.50;5.22;;;;;;;1.54;84.74;95351.50;5070368;28;20460;-48
2021/03/15 03:11:37;;;;;;;6.97;5.00;;;;;;;1.53;84.55;95347.25;5070288;28;20044;-47
2021/03/15 03:14:06;;;;;;;8.45;4.88;;;;;;;1.53;84.58;95339.25;5070378;28;20114;-48
2021/03/15 03:16:36;;;;;;;7.88;5.15;;;;;;;1.58;83.76;95341.03;5070244;28;20053;-45
2021/03/15 03:19:03;;;;;;;7.13;4.78;;;;;;;1.45;84.50;95337.22;5052492;28;20447;-47
2021/03/15 03:21:30;;;;;;;7.55;5.10;;;;;;;1.45;84.36;95345.22;5067941;28;20048;-48
2021/03/15 03:23:58;;;;;;;10.70;5.00;;;;;;;1.48;84.40;95328.66;5069764;28;20139;-44
2021/03/15 03:26:28;;;;;;;7.20;4.93;;;;;;;1.81;83.68;95331.34;5052075;28;20056;-45
2021/03/15 03:28:57;;;;;;;7.13;4.93;;;;;;;1.64;83.79;95332.66;5070315;28;20140;-46
2021/03/15 03:31:28;;;;;;;8.82;4.00;;;;;;;1.62;83.52;95328.69;5070241;28;20045;-46
2021/03/15 03:33:55;;;;;;;7.78;5.13;;;;;;;1.67;83.82;95330.53;5070260;28;20209;-46
2021/03/15 03:36:22;;;;;;;7.10;4.22;;;;;;;1.49;83.74;95319.56;5070176;28;20052;-44
2021/03/15 03:38:48;;;;;;;6.20;4.50;;;;;;;1.58;83.82;95325.81;5069935;28;20129;-46
2021/03/15 03:41:15;;;;;;;5.65;3.67;;;;;;;1.56;83.98;95325.34;5069702;28;20147;-46
2021/03/15 03:43:53;;;;;;;8.85;4.80;;;;;;;1.55;83.88;95323.75;5070491;28;20135;-46
2021/03/15 03:46:20;;;;;;;8.63;5.07;;;;;;;1.74;83.57;95323.72;5070103;28;20048;-42
2021/03/15 03:48:46;;;;;;;14.38;4.93;;;;;;;1.60;84.18;95321.00;5082835;28;20134;-46
2021/03/15 03:51:17;;;;;;;6.13;4.25;;;;;;;1.67;84.18;95322.53;5081359;28;20413;-46
2021/03/15 03:53:57;;;;;;;9.27;4.15;;;;;;;1.54;84.63;95313.38;5073417;28;20109;-46
2021/03/15 03:56:29;;;;;;;9.32;4.80;;;;;;;1.46;85.09;95314.81;5073575;28;20068;-46
2021/03/15 03:58:58;;;;;;;7.10;4.10;;;;;;;1.51;85.38;95317.41;5073227;28;20052;-45
2021/03/15 04:01:42;;;;;;;6.45;4.55;;;;;;;1.54;85.26;95314.16;5055126;28;20123;-44
2021/03/15 04:04:10;;;;;;;;;;;;;;;1.46;85.57;95317.47;5073780;28;20616;-45
2021/03/15 04:06:40;;;;;;;7.22;3.67;;;;;;;1.41;85.39;95301.56;5073535;28;19928;-44
2021/03/15 04:09:15;;;;;;;8.02;4.80;;;;;;;1.50;85.95;95309.72;5073568;28;20071;-47
2021/03/15 04:11:47;;;;;;;7.88;4.90;;;;;;;1.41;85.94;95306.91;5073329;28;20509;-44
2021/03/15 04:14:26;;;;;;;6.55;4.47;;;;;;;1.57;85.56;95307.47;5073212;28;20100;-45
2021/03/15 04:16:54;;;;;;;7.22;5.03;;;;;;;1.52;85.58;95307.53;5073240;28;20079;-45
2021/03/15 04:19:29;;;;;;;6.32;4.32;;;;;;;1.45;85.85;95307.09;5073028;28;20049;-43
2021/03/15 04:22:03;;;;;;;8.45;5.20;;;;;;;1.44;86.32;95303.66;5073153;28;20098;-45
2021/03/15 04:24:31;;;;;;;7.88;4.63;;;;;;;1.33;86.35;95300.34;5073022;28;20135;-48
2021/03/15 04:26:58;;;;;;;9.40;5.38;;;;;;;1.39;86.84;95301.06;5072773;28;20053;-46
2021/03/15 04:29:27;;;;;;;10.80;5.10;;;;;;;1.36;86.39;95302.41;5072570;28;20566;-45
2021/03/15 04:31:54;;;;;;;6.47;3.60;;;;;;;1.37;85.99;95297.91;5073003;28;20049;-45
2021/03/15 04:34:22;;;;;;;10.85;5.25;;;;;;;1.45;86.19;95299.91;5072866;28;20074;-47
2021/03/15 04:36:49;;;;;;;7.53;4.40;;;;;;;1.39;85.86;95296.50;5073205;28;20056;-46
2021/03/15 04:39:28;;;;;;;7.47;4.88;;;;;;;1.32;86.62;95288.09;5072608;28;20045;-45
2021/03/15 04:41:56;;;;;;;9.45;4.15;;;;;;;1.29;86.30;95290.53;5073045;28;20174;-47
2021/03/15 04:44:25;;;;;;;7.22;5.13;;;;;;;1.38;85.77;95291.47;5073001;28;20052;-44
2021/03/15 04:46:53;;;;;;;6.43;4.35;;;;;;;1.44;85.20;95287.66;5072353;28;20052;-43
2021/03/15 04:49:22;;;;;;;5.57;3.22;;;;;;;1.45;84.78;95286.56;5069154;28;20131;-44
2021/03/15 04:51:49;;;;;;;7.13;4.40;;;;;;;1.42;84.61;95284.47;5075499;28;20072;-48
2021/03/15 04:54:15;;;;;;;7.13;4.55;;;;;;;1.40;84.53;95284.00;5054754;28;20105;-44
2021/03/15 04:56:44;;;;;;;7.40;4.05;;;;;;;1.45;85.06;95280.44;5072342;28;20649;-45
2021/03/15 04:59:12;;;;;;;7.10;3.90;;;;;;;1.45;84.37;95283.91;5072489;28;20068;-48
2021/03/15 05:01:41;;;;;;;8.25;4.70;;;;;;;1.44;85.07;95273.53;5068899;28;20129;-47
2021/03/15 05:04:12;;;;;;;7.78;5.03;;;;;;;1.32;84.71;95265.97;5072531;28;20053;-43
2021/03/15 05:06:41;;;;;;;7.03;5.00;;;;;;;1.32;84.76;95268.66;5072373;28;20157;-49
2021/03/15 05:09:13;;;;;;;7.00;4.78;;;;;;;1.26;84.86;95267.13;5072939;28;20440;-47
2021/03/15 05:11:41;;;;;;;5.88;4.35;;;;;;;1.37;84.39;95260.59;5072395;28;20044;-46
2021/03/15 05:14:08;;;;;;;5.88;3.53;;;;;;;1.19;84.81;95264.06;5071880;28;20056;-45
2021/03/15 05:16:37;;;;;;;6.45;4.35;;;;;;;1.17;84.47;95254.47;5071573;28;20519;-44
2021/03/15 05:19:07;;;;;;;8.50;4.68;;;;;;;1.24;84.64;95264.78;5072256;28;20072;-47
2021/03/15 05:21:34;;;;;;;6.28;4.35;;;;;;;1.19;84.56;95259.50;5071382;28;20094;-47
2021/03/15 05:24:03;;;;;;;6.18;4.30;;;;;;;1.14;84.82;95255.06;5071752;28;20121;-48
2021/03/15 05:26:32;;;;;;;5.80;4.28;;;;;;;1.19;84.67;95256.84;5071478;28;20095;-48
2021/03/15 05:29:02;;;;;;;8.65;4.63;;;;;;;1.22;84.17;95263.47;5071286;28;20059;-46
2021/03/15 05:31:30;;;;;;;8.15;4.78;;;;;;;1.24;84.42;95253.31;5071182;28;20071;-46
2021/03/15 05:33:57;;;;;;;8.20;4.30;;;;;;;1.22;83.87;95256.25;5070459;28;20079;-48
2021/03/15 05:36:25;;;;;;;8.20;4.20;;;;;;;1.17;84.21;95249.16;5071885;28;20113;-49
2021/03/15 05:38:52;;;;;;;6.40;4.22;;;;;;;1.20;84.44;95249.63;5071592;28;20048;-48
2021/03/15 05:41:29;;;;;;;6.65;4.05;;;;;;;1.26;83.72;95246.59;5071249;28;20097;-44
2021/03/15 05:44:13;;;;;;;11.88;4.53;;;;;;;1.34;84.13;95245.19;5071570;28;20052;-46
2021/03/15 05:46:59;;;;;;;5.95;4.05;;;;;;;1.29;83.46;95245.25;5071251;28;20139;-48
2021/03/15 05:49:42;;;;;;;6.03;3.97;;;;;;;1.31;83.69;95249.19;5087170;28;20056;-46
2021/03/15 05:52:23;;;;;;;6.75;3.85;;;;;;;1.34;83.30;95242.50;5072030;28;20564;-48
2021/03/15 05:55:22;;;;;;;5.90;3.65;;;;;;;1.39;82.82;95240.53;5075667;28;20058;-45
2021/03/15 05:58:16;;;;;;;6.95;3.97;;;;;;;1.51;82.92;95239.31;5040860;28;20057;-47
2021/03/15 06:00:48;;;;;;;5.53;3.83;;;;;;;1.49;83.01;95238.78;5071153;28;20117;-46
2021/03/15 06:03:29;;;;;;;7.78;4.10;;;;;;;1.44;82.55;95241.56;5080439;28;20036;-46
2021/03/15 06:06:01;;;;;;;7.47;4.18;;;;;;;1.44;82.77;95246.88;5091706;28;20079;-48
2021/03/15 06:08:40;;;;;;;6.35;3.83;;;;;;;1.56;82.22;95237.34;5077727;28;20537;-47
2021/03/15 06:11:20;;;;;;;5.93;3.78;;;;;;;1.62;81.95;95244.16;5085433;28;20052;-48
2021/03/15 06:13:47;;;;;;;8.70;4.18;;;;;;;1.66;81.95;95238.25;5092023;28;20052;-44
2021/03/15 06:16:16;;;;;;;6.10;4.40;;;;;;;1.60;81.91;95237.56;5090169;28;20581;-49
2021/03/15 06:18:44;;;;;;;6.45;4.10;;;;;;;1.66;81.89;95233.72;5053741;28;20063;-47
2021/03/15 06:21:12;;;;;;;6.75;4.13;;;;;;;1.64;81.75;95231.34;5070247;28;20643;-48
2021/03/15 06:23:38;;;;;;;5.28;2.33;;;;;;;1.57;81.81;95230.94;5071539;28;20060;-48
2021/03/15 06:26:07;;;;;;;7.85;3.70;;;;;;;1.59;82.25;95226.13;5071474;28;20068;-48
2021/03/15 06:28:34;;;;;;;5.88;3.88;;;;;;;1.59;82.16;95223.44;5081321;28;20489;-47
2021/03/15 06:31:01;;;;;;;6.40;3.95;;;;;;;1.70;81.69;95232.06;5091639;28;20048;-47
2021/03/15 06:33:28;;;;;;;5.05;3.63;;;;;;;1.67;81.69;95227.31;5092358;28;20052;-48
2021/03/15 06:35:57;;;;;;;6.45;4.18;;;;;;;1.76;81.45;95227.44;5092129;28;20056;-46
2021/03/15 06:38:24;;;;;;;6.35;3.55;;;;;;;1.73;81.29;95228.03;5075520;28;20059;-49
2021/03/15 06:41:05;;;;;;;5.68;3.45;;;;;;;1.79;80.77;95232.19;5070639;28;20055;-46
2021/03/15 06:43:32;;;;;;;6.20;4.20;;;;;;;1.92;80.39;95219.94;5070927;28;20065;-46
2021/03/15 06:45:59;;;;;;;6.60;3.72;;;;;;;1.92;79.69;95215.41;5070919;28;20079;-46
2021/03/15 06:48:27;;;;;;;5.68;3.20;;;;;;;1.92;79.09;95220.75;5052847;28;20127;-47
2021/03/15 06:50:55;;;;;;;7.38;4.40;;;;;;;2.07;79.49;95225.78;5071079;28;20063;-48
2021/03/15 06:53:21;;;;;;;5.03;3.33;;;;;;;2.06;78.96;95215.41;5071099;28;20056;-48
2021/03/15 06:55:50;;;;;;;14.38;4.40;;;;;;;2.20;78.83;95223.44;5071299;28;20205;-48
2021/03/15 06:58:20;;;;;;;6.30;3.65;;;;;;;2.29;78.19;95219.78;5070798;28;20484;-47
2021/03/15 07:00:47;;;;;;;5.35;3.35;;;;;;;2.26;78.18;95225.69;5052816;28;20044;-46
2021/03/15 07:03:21;;;;;;;4.97;3.03;;;;;;;2.46;77.34;95216.50;5070758;28;20498;-44
2021/03/15 07:05:58;;;;;;;6.07;3.22;;;;;;;2.50;77.78;95214.84;5070853;28;20053;-44
2021/03/15 07:08:25;;;;;;;4.05;2.47;;;;;;;2.36;77.00;95216.72;5052441;28;20049;-47
2021/03/15 07:10:55;;;;;;;6.88;3.67;;;;;;;2.26;77.65;95222.25;5069078;28;20134;-44
2021/03/15 07:13:24;;;;;;;7.18;3.15;;;;;;;2.46;78.21;95213.84;5070708;28;20052;-48
2021/03/15 07:15:53;;;;;;;4.72;3.10;;;;;;;2.51;77.74;95218.28;5070662;28;20402;-47
2021/03/15 07:18:19;;;;;;;4.90;3.15;;;;;;;2.41;77.62;95221.16;5070548;28;20612;-46
2021/03/15 07:20:52;;;;;;;7.22;3.80;;;;;;;2.46;77.33;95224.50;5069984;28;20048;-47
2021/03/15 07:23:41;;;;;;;5.97;2.75;;;;;;;2.56;76.47;95213.63;5072117;28;20248;-49
2021/03/15 07:26:15;;;;;;;5.88;3.17;;;;;;;2.65;76.96;95218.28;5065735;28;20053;-48
2021/03/15 07:28:42;;;;;;;4.93;2.78;;;;;;;2.69;76.75;95219.25;5076046;28;20052;-48
2021/03/15 07:31:27;;;;;;;6.00;3.20;;;;;;;2.67;76.57;95229.47;5075155;28;20044;-47
2021/03/15 07:33:56;;;;;;;4.63;2.47;;;;;;;2.60;77.10;95219.19;5075801;28;20048;-47
2021/03/15 07:36:29;;;;;;;5.43;2.90;;;;;;;2.70;77.81;95220.84;5093001;28;20447;-49
2021/03/15 07:38:57;;;;;;;5.82;2.30;;;;;;;2.62;77.87;95216.19;5093762;28;20073;-46
2021/03/15 07:41:45;;;;;;;5.68;2.60;;;;;;;2.35;79.42;95225.81;5094410;28;20135;-47
2021/03/15 07:44:27;;;;;;;5.05;3.08;;;;;;;2.54;78.48;95215.03;5092334;28;20055;-45
2021/03/15 07:46:56;;;;;;;5.53;2.80;;;;;;;2.58;79.03;95210.66;5093793;28;20071;-48
2021/03/15 07:49:38;;;;;;;4.30;2.30;;;;;;;2.51;78.87;95211.06;5076884;28;20052;-46
2021/03/15 07:52:10;;;;;;;4.95;2.70;;;;;;;2.43;78.95;95209.09;5082680;28;20105;-50
2021/03/15 07:54:41;;;;;;;6.88;3.10;;;;;;;2.48;78.52;95200.19;5094027;28;20058;-46
2021/03/15 07:57:23;;;;;;;4.60;2.28;;;;;;;2.34;78.26;95202.88;5065880;28;20518;-46
2021/03/15 07:59:50;;;;;;;4.97;2.25;;;;;;;2.50;78.03;95209.50;5080090;28;20489;-50
2021/03/15 08:02:22;;;;;;;3.97;2.10;;;;;;;2.62;77.26;95210.84;5090072;28;20052;-50
2021/03/15 08:04:50;;;;;;;4.93;2.30;;;;;;;2.75;77.08;95210.81;5092877;28;20131;-46
2021/03/15 08:07:18;;;;;;;4.70;2.40;;;;;;;2.80;77.13;95207.28;5086525;28;20113;-47
2021/03/15 08:09:51;;;;;;;4.25;2.20;;;;;;;2.69;75.72;95200.56;5069413;28;20101;-48
2021/03/15 08:12:22;;;;;;;6.50;1.90;;;;;;;2.77;76.30;95205.19;5082752;28;20048;-47
2021/03/15 08:14:58;;;;;;;4.10;2.00;;;;;;;2.86;76.99;95200.72;5081786;28;20055;-47
2021/03/15 08:17:28;;;;;;;5.35;2.20;;;;;;;2.88;77.41;95200.41;5084569;28;20519;-47
2021/03/15 08:19:57;;;;;;;4.93;2.03;;;;;;;2.73;78.41;95188.16;5084438;28;20047;-48
2021/03/15 08:22:28;;;;;;;5.63;1.95;;;;;;;2.89;77.84;95185.97;5086848;28;20497;-46
2021/03/15 08:24:58;;;;;;;4.68;2.70;;;;;;;2.93;78.33;95177.06;5085916;28;20067;-49
2021/03/15 08:27:28;;;;;;;5.88;2.72;;;;;;;2.83;77.27;95174.63;5073401;28;20043;-48
2021/03/15 08:29:58;;;;;;;4.93;2.70;;;;;;;3.06;78.57;95174.66;5070038;28;20101;-47
2021/03/15 08:32:27;;;;;;;3.80;2.47;;;;;;;3.16;77.47;95174.41;5089477;28;20075;-47
2021/03/15 08:34:54;;;;;;;3.67;2.22;;;;;;;3.02;77.62;95161.06;5091427;28;20039;-48
2021/03/15 08:38:00;;;;;;;3.63;2.03;;;;;;;3.07;77.84;95168.19;5068299;28;20076;-47
2021/03/15 08:40:45;;;;;;;3.67;1.92;;;;;;;2.96;77.80;95155.09;4988822;28;20072;-48
2021/03/15 08:43:51;;;;;;;4.57;2.53;;;;;;;3.31;78.62;95151.84;5082548;28;20480;-48
2021/03/15 08:46:39;;;;;;;5.63;2.33;;;;;;;3.40;78.32;95155.38;5077114;28;20044;-47
2021/03/15 08:49:07;;;;;;;3.65;2.47;;;;;;;3.50;76.98;95145.22;5077859;28;20072;-49
2021/03/15 08:51:34;;;;;;;4.38;2.20;;;;;;;3.38;77.54;95145.00;5084094;28;20059;-55
2021/03/15 08:54:06;;;;;;;5.10;2.42;;;;;;;3.55;77.82;95144.31;5093460;28;20054;-48
2021/03/15 08:56:33;;;;;;;3.15;2.03;;;;;;;3.36;77.42;95143.72;5086821;28;20044;-51
2021/03/15 08:59:03;;;;;;;4.63;2.72;;;;;;;3.32;78.40;95142.75;5085131;28;20060;-49
2021/03/15 09:01:49;;;;;;;3.58;1.70;;;;;;;3.11;78.24;95139.78;5085102;28;20056;-49
2021/03/15 09:04:40;;;;;;;4.28;2.10;;;;;;;3.00;78.26;95137.34;5064492;28;20048;-49
2021/03/15 09:07:30;;;;;;;3.33;2.17;;;;;;;3.16;78.98;95137.00;5083375;28;20139;-47
2021/03/15 09:10:17;;;;;;;3.60;2.33;;;;;;;3.18;78.74;95142.81;5085315;28;20044;-46
2021/03/15 09:13:12;;;;;;;4.38;2.60;;;;;;;3.21;78.26;95123.47;5080407;28;20045;-49
2021/03/15 09:15:40;;;;;;;4.95;2.03;;;;;;;3.06;78.20;95129.22;5083444;28;20048;-43
2021/03/15 09:18:48;;;;;;;6.13;2.88;;;;;;;3.21;78.45;95120.81;5085836;28;20075;-46
2021/03/15 09:21:23;;;;;;;3.80;2.10;;;;;;;3.40;77.42;95112.59;5034527;28;20382;-49
2021/03/15 09:23:50;;;;;;;5.82;1.98;;;;;;;3.45;77.04;95109.81;5083424;28;20044;-47
2021/03/15 09:26:46;;;;;;;2.13;1.50;;;;;;;3.26;78.31;95110.00;5084026;28;20386;-47
2021/03/15 09:29:13;;;;;;;4.03;1.38;;;;;;;3.26;77.81;95108.13;5068919;28;20051;-48
2021/03/15 09:31:39;;;;;;;1.70;1.35;;;;;;;3.23;78.09;95102.59;5085046;28;20575;-51
2021/03/15 09:34:19;;;;;;;2.83;1.50;;;;;;;3.20;77.25;95098.63;5066636;28;20044;-50
2021/03/15 09:36:45;;;;;;;4.90;1.50;;;;;;;3.21;78.14;95102.88;5083913;28;20112;-52
2021/03/15 09:39:13;;;;;;;6.47;1.95;;;;;;;3.42;77.66;95099.72;5086113;28;20055;-49
2021/03/15 09:41:46;;;;;;;3.92;1.85;;;;;;;3.46;76.76;95092.66;5085309;28;20136;-47
2021/03/15 09:44:12;;;;;;;2.40;1.60;;;;;;;3.41;76.70;95101.59;5083795;28;20135;-48
2021/03/15 09:46:42;;;;;;;2.92;1.60;;;;;;;3.36;77.37;95096.38;5084541;28;20052;-47
2021/03/15 09:49:09;;;;;;;3.35;1.70;;;;;;;3.30;78.56;95092.25;5057554;28;20040;-48
2021/03/15 09:51:35;;;;;;;2.50;1.50;;;;;;;3.22;77.24;95098.34;5068131;28;20490;-46
2021/03/15 09:54:09;;;;;;;2.55;1.40;;;;;;;3.23;77.67;95083.88;5072465;28;20066;-46
2021/03/15 09:56:44;;;;;;;2.65;1.33;;;;;;;3.19;78.35;95080.25;5091479;28;20084;-48
2021/03/15 09:59:30;;;;;;;3.55;1.38;;;;;;;3.09;78.29;95083.97;5067209;28;20565;-47
2021/03/15 10:01:58;;;;;;;3.28;1.70;;;;;;;3.34;77.96;95089.75;5067220;28;20060;-50
2021/03/15 10:04:54;;;;;;;2.85;1.20;;;;;;;3.17;78.78;95085.88;5046255;28;20056;-49
2021/03/15 10:07:41;;;;;;;2.47;1.40;;;;;;;3.47;78.57;95081.63;5079329;28;20076;-50
2021/03/15 10:10:26;;;;;;;2.25;1.20;;;;;;;3.34;77.82;95082.50;5077870;28;20078;-50
2021/03/15 10:13:11;;;;;;;1.95;1.00;;;;;;;3.03;78.95;95077.94;5083538;28;20504;-50
2021/03/15 10:16:05;;;;;;;2.20;1.00;;;;;;;3.01;79.83;95096.16;5080001;28;20066;-50
2021/03/15 10:18:50;;;;;;;2.30;1.20;;;;;;;3.13;79.53;95071.56;5074567;28;20160;-48
2021/03/15 10:21:29;;;;;;;2.70;1.10;;;;;;;3.17;79.41;95077.06;5081456;28;20051;-52
2021/03/15 10:24:01;;;;;;;3.03;1.30;;;;;;;3.42;79.07;95081.00;5063090;28;20048;-51
2021/03/15 10:26:29;;;;;;;3.33;1.25;;;;;;;3.53;79.21;95076.94;5070876;28;20060;-54
2021/03/15 10:28:58;;;;;;;3.15;1.05;;;;;;;3.47;78.60;95078.97;5071056;28;20398;-52
2021/03/15 10:31:30;;;;;;;2.95;1.20;;;;;;;3.54;78.65;95075.06;5049084;28;20048;-50
2021/03/15 10:34:01;;;;;;;1.35;0.98;;;;;;;3.26;78.21;95069.91;5086760;28;20158;-50
2021/03/15 10:36:38;;;;;;;2.70;1.23;;;;;;;3.53;78.63;95065.47;5074051;28;20048;-49
2021/03/15 10:39:20;;;;;;;5.68;1.70;;;;;;;3.55;78.87;95066.75;5082444;28;20082;-48
2021/03/15 10:41:47;;;;;;;3.28;1.40;;;;;;;3.48;78.33;95061.84;5086421;28;20052;-49
2021/03/15 10:44:23;;;;;;;2.58;1.40;;;;;;;3.53;77.91;95052.88;5063974;28;20081;-50
2021/03/15 10:46:56;;;;;;;2.22;1.30;;;;;;;3.60;78.65;95057.78;5064745;28;20036;-46
2021/03/15 10:49:32;;;;;;;3.92;1.27;;;;;;;3.58;78.04;95058.09;5063754;28;20136;-48
2021/03/15 10:52:35;;;;;;;1.75;0.98;;;;;;;3.51;79.09;95055.88;5085924;28;20036;-50
2021/03/15 10:55:14;;;;;;;1.50;1.05;;;;;;;3.44;78.40;95058.19;5064615;28;20494;-49
2021/03/15 10:58:10;;;;;;;1.92;1.10;;;;;;;3.54;78.24;95050.97;5086068;28;20040;-46
2021/03/15 11:00:59;;;;;;;1.00;0.80;;;;;;;3.46;78.34;95050.66;5069619;28;20048;-48
2021/03/15 11:03:30;;;;;;;2.05;0.90;;;;;;;3.25;79.51;95054.94;5073194;28;20456;-47
2021/03/15 11:06:19;;;;;;;1.58;0.80;;;;;;;3.30;80.61;95052.16;5072920;28;20134;-47
2021/03/15 11:09:08;;;;;;;1.25;1.00;;;;;;;3.47;81.59;95054.88;5087440;28;20047;-47
2021/03/15 11:11:35;;;;;;;8.02;1.10;;;;;;;3.53;79.80;95047.53;5071978;28;20086;-48
2021/03/15 11:14:10;;;;;;;1.48;1.02;;;;;;;3.58;80.18;95049.28;5069791;28;20068;-49
2021/03/15 11:17:01;;;;;;;2.00;0.73;;;;;;;3.32;81.77;95044.63;5078280;28;20075;-52
2021/03/15 11:19:33;;;;;;;1.55;0.77;;;;;;;3.38;80.54;95062.09;5067607;28;20105;-48
2021/03/15 11:22:00;;;;;;;4.00;1.00;;;;;;;3.23;81.69;95051.81;5068322;28;20040;-52
2021/03/15 11:24:37;;;;;;;0.98;0.70;;;;;;;3.04;81.99;95052.00;5071290;28;20052;-49
2021/03/15 11:27:09;;;;;;;1.42;0.90;;;;;;;3.28;82.39;95052.47;5068452;28;20071;-49
2021/03/15 11:29:43;;;;;;;1.58;1.10;;;;;;;3.32;83.57;95046.50;5071538;28;20052;-48
2021/03/15 11:32:34;;;;;;;1.25;0.88;;;;;;;2.88;82.55;95048.91;5055046;28;20070;-47
2021/03/15 11:35:17;;;;;;;1.10;0.85;;;;;;;2.89;82.86;95047.81;5057548;28;20052;-47
2021/03/15 11:37:52;;;;;;;0.95;0.55;;;;;;;2.90;83.45;95041.41;5073705;28;20067;-47
2021/03/15 11:40:30;;;;;;;1.00;0.70;;;;;;;2.90;81.70;95057.44;5070299;28;20142;-48
2021/03/15 11:42:58;;;;;;;2.35;0.90;;;;;;;2.75;82.60;95044.44;5070232;28;20040;-49
2021/03/15 11:45:26;;;;;;;0.85;0.80;;;;;;;2.81;83.20;95037.88;5086000;28;20409;-48
2021/03/15 11:47:55;;;;;;;7.70;4.40;;;;;;;2.89;82.84;95034.47;5055247;28;20048;-47
2021/03/15 11:50:42;;;;;;;2.00;1.30;;;;;;;3.14;83.33;95032.25;5068973;28;20046;-50
2021/03/15 11:53:16;;;;;;;4.88;2.30;;;;;;;3.01;82.14;95034.69;5074053;28;20040;-50
2021/03/15 11:55:44;;;;;;;4.80;1.85;;;;;;;3.25;83.54;95029.03;5066080;28;20044;-49
2021/03/15 11:58:15;;;;;;;1.67;0.82;;;;;;;2.91;83.45;95031.50;5084500;28;20127;-51
2021/03/15 12:00:42;;;;;;;1.38;0.98;;;;;;;3.03;83.39;95024.50;5069763;28;20074;-50
2021/03/15 12:03:32;;;;;;;2.72;1.33;;;;;;;3.16;83.87;95024.72;5074665;28;20044;-50
2021/03/15 12:06:00;;;;;;;1.25;0.95;;;;;;;3.16;82.47;95020.16;5086066;28;20071;-50
2021/03/15 12:08:49;;;;;;;1.40;1.10;;;;;;;3.32;82.67;95019.78;5088025;28;20048;-49
2021/03/15 12:11:18;;;;;;;1.13;0.95;;;;;;;3.40;83.26;95016.34;5074085;28;20501;-48